Vronskiy — C4AY2 — position and weather

sailwx.info

Track history (hours):
 
Tides and Currents Weather Stations Pressure Air Temp Water Temp Dewpoint Dewpoint Depression Visibility Wind Speed Wind Dir Waves Ship Positions

Vronskiy

Last reported at 2015-Feb-27 12:23 UTC. Time now 2015-Feb-27 13:13 UTC.
Position N 36°08' W 005°26'.

Length 131 m; draft 5.2 m.

Type: Passenger vessel. MMSI: 210030000.

Date/timePositionNaut miles runAvg speedWind from/ knotsBaromVisibWave heightAir tempDewpointWater temp
2015-Feb-27 12:23N 36°08' W 005°26'8 9.1
2015-Feb-27 11:31N 36°00' W 005°24'4 1.2
2015-Feb-27 08:33N 35°59' W 005°28'9 9.0
2015-Feb-27 07:32N 36°08' W 005°26'0 0.0
2015-Feb-27 06:32N 36°08' W 005°26'0 0.0
2015-Feb-27 05:32N 36°08' W 005°26'0 0.0
2015-Feb-27 03:08N 36°08' W 005°26'0 0.0
2015-Feb-27 01:30N 36°08' W 005°26'8 7.6
2015-Feb-27 00:31N 36°00' W 005°25'6 2.7
2015-Feb-26 22:12N 35°56' W 005°30'913.9
2015-Feb-26 21:33N 36°04' W 005°24'5 2.3
2015-Feb-26 19:31N 36°08' W 005°26'1010.8
2015-Feb-26 18:34N 35°58' W 005°27'3 1.2
2015-Feb-26 16:12N 35°56' W 005°30'913.3
2015-Feb-26 15:34N 36°04' W 005°24'5 1.8
2015-Feb-26 12:33N 36°09' W 005°26'9 2.1
2015-Feb-26 08:33N 36°00' W 005°26'8 3.4
2015-Feb-26 06:17N 36°08' W 005°26'0 0.0
2015-Feb-26 05:29N 36°08' W 005°26'0 0.0
2015-Feb-26 03:16N 36°08' W 005°26'8 9.6
2015-Feb-26 02:27N 36°00' W 005°25'6 1.9
2015-Feb-25 23:26N 35°56' W 005°30'1213.4
2015-Feb-25 22:33N 36°07' W 005°24'7 1.9
2015-Feb-25 19:05N 36°00' W 005°24'6 2.1
2015-Feb-25 16:09N 35°56' W 005°30'813.4
2015-Feb-25 15:33N 36°03' W 005°24'6 5.3
2015-Feb-25 14:31N 36°08' W 005°26'0 0.0
2015-Feb-25 13:31N 36°08' W 005°26'1 1.0
2015-Feb-25 12:33N 36°09' W 005°26'1212.2
2015-Feb-25 11:32N 35°57' W 005°28'3 0.9
2015-Feb-25 08:33N 35°59' W 005°27'9 3.7
2015-Feb-25 06:08N 36°08' W 005°26'0 0.0
2015-Feb-25 03:29N 36°08' W 005°26'0 0.0
2015-Feb-25 02:32N 36°08' W 005°26'8 8.2
2015-Feb-25 01:33N 35°60' W 005°25'6 1.9
2015-Feb-24 22:26N 35°56' W 005°30'1113.1
2015-Feb-24 21:33N 36°06' W 005°24'7 2.4
2015-Feb-24 18:33N 35°59' W 005°24'2 0.8
2015-Feb-24 15:33N 35°59' W 005°27'10 9.2
2015-Feb-24 14:30N 36°09' W 005°26'2 0.9
2015-Feb-24 12:27N 36°08' W 005°24'1213.7
2015-Feb-24 11:33N 35°57' W 005°28'4 1.3
2015-Feb-24 08:33N 35°60' W 005°26'9 1.2
2015-Feb-24 01:18N 36°09' W 005°26'1011.9
2015-Feb-24 00:28N 35°59' W 005°25'2 0.8
2015-Feb-23 21:34N 35°59' W 005°28'9 4.0
2015-Feb-23 19:17N 36°08' W 005°26'810.1
2015-Feb-23 18:31N 36°00' W 005°24'6 1.9
2015-Feb-23 15:23N 35°56' W 005°30'1113.5
2015-Feb-23 14:33N 36°07' W 005°24'2 1.2
2015-Feb-23 12:32N 36°08' W 005°26'1111.2
2015-Feb-23 11:32N 35°57' W 005°28'2 0.6
2015-Feb-23 08:33N 35°57' W 005°30'1312.1
2015-Feb-23 07:31N 36°09' W 005°26'9 1.7
2015-Feb-23 02:04N 35°59' W 005°25'2 0.7
2015-Feb-22 23:34N 36°01' W 005°25'0 0.0
2015-Feb-22 16:33N 36°01' W 005°25'7 2.9
2015-Feb-22 14:14N 36°08' W 005°26'0 0.0
2015-Feb-22 13:30N 36°08' W 005°26'8 7.7
2015-Feb-22 12:25N 35°60' W 005°25'7 2.5
2015-Feb-22 09:22N 35°54' W 005°31'911.6
2015-Feb-22 08:33N 36°01' W 005°24'7 2.0
2015-Feb-22 05:15N 36°08' W 005°26'7 3.5
2015-Feb-22 03:09N 36°01' W 005°24'6 1.4
2015-Feb-21 22:27N 35°56' W 005°30'1213.1
2015-Feb-21 21:33N 36°07' W 005°24'2 1.2
2015-Feb-21 19:33N 36°09' W 005°26'10 2.5
2015-Feb-21 15:33N 35°59' W 005°28'3 0.7
2015-Feb-21 12:03N 36°00' W 005°25'6 2.0
2015-Feb-21 09:05N 35°56' W 005°30'611.5
2015-Feb-21 08:33N 36°00' W 005°25'8 1.7
2015-Feb-21 04:03N 36°08' W 005°26'1010.4
2015-Feb-21 03:08N 35°58' W 005°26'4 1.1
2015-Feb-20 23:27N 35°57' W 005°30'1313.3
2015-Feb-20 22:30N 36°09' W 005°26'1 0.9
2015-Feb-20 21:18N 36°08' W 005°26'8 6.2
2015-Feb-20 20:05N 36°00' W 005°25'6 2.1
2015-Feb-20 17:19N 35°57' W 005°30'1114.2
2015-Feb-20 16:33N 36°06' W 005°24'3 2.8
2015-Feb-20 15:30N 36°08' W 005°26'0 0.0
2015-Feb-20 14:30N 36°08' W 005°26'0 0.1
2015-Feb-20 13:26N 36°08' W 005°26'7 6.0
2015-Feb-20 12:20N 36°01' W 005°24'7 2.2
2015-Feb-20 09:09N 35°56' W 005°30'812.8
2015-Feb-20 08:33N 36°02' W 005°24'6 5.1
2015-Feb-20 07:20N 36°08' W 005°26'0 0.0
2015-Feb-20 06:29N 36°08' W 005°26'0 0.0
2015-Feb-20 05:32N 36°08' W 005°26'0 0.0
2015-Feb-20 04:32N 36°08' W 005°26'8 6.4
2015-Feb-20 03:16N 36°00' W 005°24'5 1.2
2015-Feb-19 23:33N 35°58' W 005°29'10 8.9
2015-Feb-19 22:26N 36°08' W 005°26'0 0.0
2015-Feb-19 20:11N 36°08' W 005°26'9 5.5
2015-Feb-19 18:34N 35°59' W 005°23'3 0.4
2015-Feb-19 11:33N 35°59' W 005°27'8 0.7
2015-Feb-18 23:29N 36°07' W 005°23'8 8.3
2015-Feb-18 22:32N 35°59' W 005°25'2 0.4
2015-Feb-18 18:33N 35°59' W 005°27'10 9.6
2015-Feb-18 17:33N 36°08' W 005°25'1 0.6
2015-Feb-18 15:14N 36°08' W 005°26'2 1.7
2015-Feb-18 14:07N 36°09' W 005°24'4 7.5
2015-Feb-18 13:33N 36°05' W 005°21'1111.0
2015-Feb-18 12:33N 35°56' W 005°29'1 0.4
2015-Feb-18 09:31N 35°57' W 005°30'1212.9
2015-Feb-18 08:33N 36°08' W 005°24'2 0.2
2015-Feb-17 23:26N 36°08' W 005°26'2 1.5
2015-Feb-17 22:04N 36°09' W 005°24'712.9
2015-Feb-17 21:33N 36°02' W 005°23'3 0.5
2015-Feb-17 16:33N 36°01' W 005°25'7 2.5
2015-Feb-17 13:33N 36°08' W 005°26'  
Track history (hours):
 
Tides and Currents Weather Stations Pressure Air Temp Water Temp Dewpoint Dewpoint Depression Visibility Wind Speed Wind Dir Waves Ship Positions

Vronskiy

Last reported at 2015-Feb-27 12:23 UTC. Time now 2015-Feb-27 13:13 UTC.
Position N 36°08' W 005°26'.

Length 131 m; draft 5.2 m.

Type: Passenger vessel. MMSI: 210030000.

Date/timePositionNaut miles runAvg speedWind from/ knotsBaromVisibWave heightAir tempDewpointWater temp
2015-Feb-27 12:23N 36°08' W 005°26'8 9.1
2015-Feb-27 11:31N 36°00' W 005°24'4 1.2
2015-Feb-27 08:33N 35°59' W 005°28'9 9.0
2015-Feb-27 07:32N 36°08' W 005°26'0 0.0
2015-Feb-27 06:32N 36°08' W 005°26'0 0.0
2015-Feb-27 05:32N 36°08' W 005°26'0 0.0
2015-Feb-27 03:08N 36°08' W 005°26'0 0.0
2015-Feb-27 01:30N 36°08' W 005°26'8 7.6
2015-Feb-27 00:31N 36°00' W 005°25'6 2.7
2015-Feb-26 22:12N 35°56' W 005°30'913.9
2015-Feb-26 21:33N 36°04' W 005°24'5 2.3
2015-Feb-26 19:31N 36°08' W 005°26'1010.8
2015-Feb-26 18:34N 35°58' W 005°27'3 1.2
2015-Feb-26 16:12N 35°56' W 005°30'913.3
2015-Feb-26 15:34N 36°04' W 005°24'5 1.8
2015-Feb-26 12:33N 36°09' W 005°26'9 2.1
2015-Feb-26 08:33N 36°00' W 005°26'8 3.4
2015-Feb-26 06:17N 36°08' W 005°26'0 0.0
2015-Feb-26 05:29N 36°08' W 005°26'0 0.0
2015-Feb-26 03:16N 36°08' W 005°26'8 9.6
2015-Feb-26 02:27N 36°00' W 005°25'6 1.9
2015-Feb-25 23:26N 35°56' W 005°30'1213.4
2015-Feb-25 22:33N 36°07' W 005°24'7 1.9
2015-Feb-25 19:05N 36°00' W 005°24'6 2.1
2015-Feb-25 16:09N 35°56' W 005°30'813.4
2015-Feb-25 15:33N 36°03' W 005°24'6 5.3
2015-Feb-25 14:31N 36°08' W 005°26'0 0.0
2015-Feb-25 13:31N 36°08' W 005°26'1 1.0
2015-Feb-25 12:33N 36°09' W 005°26'1212.2
2015-Feb-25 11:32N 35°57' W 005°28'3 0.9
2015-Feb-25 08:33N 35°59' W 005°27'9 3.7
2015-Feb-25 06:08N 36°08' W 005°26'0 0.0
2015-Feb-25 03:29N 36°08' W 005°26'0 0.0
2015-Feb-25 02:32N 36°08' W 005°26'8 8.2
2015-Feb-25 01:33N 35°60' W 005°25'6 1.9
2015-Feb-24 22:26N 35°56' W 005°30'1113.1
2015-Feb-24 21:33N 36°06' W 005°24'7 2.4
2015-Feb-24 18:33N 35°59' W 005°24'2 0.8
2015-Feb-24 15:33N 35°59' W 005°27'10 9.2
2015-Feb-24 14:30N 36°09' W 005°26'2 0.9
2015-Feb-24 12:27N 36°08' W 005°24'1213.7
2015-Feb-24 11:33N 35°57' W 005°28'4 1.3
2015-Feb-24 08:33N 35°60' W 005°26'9 1.2
2015-Feb-24 01:18N 36°09' W 005°26'1011.9
2015-Feb-24 00:28N 35°59' W 005°25'2 0.8
2015-Feb-23 21:34N 35°59' W 005°28'9 4.0
2015-Feb-23 19:17N 36°08' W 005°26'810.1
2015-Feb-23 18:31N 36°00' W 005°24'6 1.9
2015-Feb-23 15:23N 35°56' W 005°30'1113.5
2015-Feb-23 14:33N 36°07' W 005°24'2 1.2
2015-Feb-23 12:32N 36°08' W 005°26'1111.2
2015-Feb-23 11:32N 35°57' W 005°28'2 0.6
2015-Feb-23 08:33N 35°57' W 005°30'1312.1
2015-Feb-23 07:31N 36°09' W 005°26'9 1.7
2015-Feb-23 02:04N 35°59' W 005°25'2 0.7
2015-Feb-22 23:34N 36°01' W 005°25'0 0.0
2015-Feb-22 16:33N 36°01' W 005°25'7 2.9
2015-Feb-22 14:14N 36°08' W 005°26'0 0.0
2015-Feb-22 13:30N 36°08' W 005°26'8 7.7
2015-Feb-22 12:25N 35°60' W 005°25'7 2.5
2015-Feb-22 09:22N 35°54' W 005°31'911.6
2015-Feb-22 08:33N 36°01' W 005°24'7 2.0
2015-Feb-22 05:15N 36°08' W 005°26'7 3.5
2015-Feb-22 03:09N 36°01' W 005°24'6 1.4
2015-Feb-21 22:27N 35°56' W 005°30'1213.1
2015-Feb-21 21:33N 36°07' W 005°24'2 1.2
2015-Feb-21 19:33N 36°09' W 005°26'10 2.5
2015-Feb-21 15:33N 35°59' W 005°28'3 0.7
2015-Feb-21 12:03N 36°00' W 005°25'6 2.0
2015-Feb-21 09:05N 35°56' W 005°30'611.5
2015-Feb-21 08:33N 36°00' W 005°25'8 1.7
2015-Feb-21 04:03N 36°08' W 005°26'1010.4
2015-Feb-21 03:08N 35°58' W 005°26'4 1.1
2015-Feb-20 23:27N 35°57' W 005°30'1313.3
2015-Feb-20 22:30N 36°09' W 005°26'1 0.9
2015-Feb-20 21:18N 36°08' W 005°26'8 6.2
2015-Feb-20 20:05N 36°00' W 005°25'6 2.1
2015-Feb-20 17:19N 35°57' W 005°30'1114.2
2015-Feb-20 16:33N 36°06' W 005°24'3 2.8
2015-Feb-20 15:30N 36°08' W 005°26'0 0.0
2015-Feb-20 14:30N 36°08' W 005°26'0 0.1
2015-Feb-20 13:26N 36°08' W 005°26'7 6.0
2015-Feb-20 12:20N 36°01' W 005°24'7 2.2
2015-Feb-20 09:09N 35°56' W 005°30'812.8
2015-Feb-20 08:33N 36°02' W 005°24'6 5.1
2015-Feb-20 07:20N 36°08' W 005°26'0 0.0
2015-Feb-20 06:29N 36°08' W 005°26'0 0.0
2015-Feb-20 05:32N 36°08' W 005°26'0 0.0
2015-Feb-20 04:32N 36°08' W 005°26'8 6.4
2015-Feb-20 03:16N 36°00' W 005°24'5 1.2
2015-Feb-19 23:33N 35°58' W 005°29'10 8.9
2015-Feb-19 22:26N 36°08' W 005°26'0 0.0
2015-Feb-19 20:11N 36°08' W 005°26'9 5.5
2015-Feb-19 18:34N 35°59' W 005°23'3 0.4
2015-Feb-19 11:33N 35°59' W 005°27'8 0.7
2015-Feb-18 23:29N 36°07' W 005°23'8 8.3
2015-Feb-18 22:32N 35°59' W 005°25'2 0.4
2015-Feb-18 18:33N 35°59' W 005°27'10 9.6
2015-Feb-18 17:33N 36°08' W 005°25'1 0.6
2015-Feb-18 15:14N 36°08' W 005°26'2 1.7
2015-Feb-18 14:07N 36°09' W 005°24'4 7.5
2015-Feb-18 13:33N 36°05' W 005°21'1111.0
2015-Feb-18 12:33N 35°56' W 005°29'1 0.4
2015-Feb-18 09:31N 35°57' W 005°30'1212.9
2015-Feb-18 08:33N 36°08' W 005°24'2 0.2
2015-Feb-17 23:26N 36°08' W 005°26'2 1.5
2015-Feb-17 22:04N 36°09' W 005°24'712.9
2015-Feb-17 21:33N 36°02' W 005°23'3 0.5
2015-Feb-17 16:33N 36°01' W 005°25'7 2.5
2015-Feb-17 13:33N 36°08' W 005°26'  

Dump ship's entire track history